Time;durP1;ratioP1;P1;durP2;ratioP2;P2;SDS_P1;SDS_P2;PMS_P1;PMS_P2;Temp;Humidity;BMP_temperature;BMP_pressure;BME280_temperature;BME280_humidity;BME280_pressure;Samples;Min_cycle;Max_cycle;Signal;HPM_P1;HPM_P2
2022/01/02 00:01:46;;;;;;;0.73;0.65;;;11.60;99.90;;;;;;5068053;28;20046;-90
2022/01/02 00:04:17;;;;;;;2.97;2.03;;;11.60;99.90;;;;;;5081876;28;20058;-90
2022/01/02 00:06:51;;;;;;;3.15;1.13;;;11.60;99.90;;;;;;5070263;28;20127;-90
2022/01/02 00:09:26;;;;;;;3.22;1.85;;;11.70;99.90;;;;;;5061698;28;20509;-90
2022/01/02 00:11:57;;;;;;;3.03;1.42;;;11.60;99.90;;;;;;5062247;28;20062;-90
2022/01/02 00:14:26;;;;;;;4.45;1.83;;;11.50;99.90;;;;;;5061951;28;20039;-90
2022/01/02 00:16:52;;;;;;;2.28;1.52;;;11.60;99.90;;;;;;5072879;27;20027;-90
2022/01/02 00:19:28;;;;;;;5.70;2.92;;;11.60;99.90;;;;;;5085147;28;20118;-90
2022/01/02 00:21:58;;;;;;;3.45;1.85;;;11.60;99.90;;;;;;5081188;28;20036;-90
2022/01/02 00:24:26;;;;;;;3.55;2.03;;;11.50;99.90;;;;;;5081088;28;20040;-89
2022/01/02 00:26:54;;;;;;;2.65;1.17;;;11.50;99.90;;;;;;5080258;28;20036;-90
2022/01/02 00:29:21;;;;;;;5.13;1.55;;;11.50;99.90;;;;;;5080929;28;20044;-90
2022/01/02 00:31:47;;;;;;;2.58;1.13;;;11.50;99.90;;;;;;5080906;28;20075;-90
2022/01/02 00:34:13;;;;;;;1.30;0.90;;;11.50;99.90;;;;;;5080719;28;20036;-90
2022/01/02 00:36:42;;;;;;;3.28;1.95;;;11.50;99.90;;;;;;5080110;28;20046;-90
2022/01/02 00:39:08;;;;;;;1.50;0.93;;;11.60;99.90;;;;;;5081293;28;20082;-90
2022/01/02 00:41:54;;;;;;;2.15;1.27;;;11.50;99.90;;;;;;5081720;28;20050;-90
2022/01/02 00:44:58;;;;;;;3.20;0.98;;;11.50;99.90;;;;;;5061198;28;20039;-91
2022/01/02 00:47:33;;;;;;;1.95;1.15;;;11.50;99.90;;;;;;5060325;28;20126;-91
2022/01/02 00:50:08;;;;;;;5.80;2.22;;;11.50;99.90;;;;;;5061430;28;20044;-90
2022/01/02 00:52:39;;;;;;;1.88;0.90;;;11.50;99.90;;;;;;5081084;28;20035;-90
2022/01/02 00:55:11;;;;;;;4.50;2.35;;;11.50;99.90;;;;;;5080086;28;20035;-89
2022/01/02 00:57:40;;;;;;;3.50;1.58;;;11.40;99.90;;;;;;5075727;28;20113;-90
2022/01/02 01:00:12;;;;;;;2.85;1.45;;;11.70;99.90;;;;;;5090120;27;20043;-90
2022/01/02 01:02:55;;;;;;;4.00;0.88;;;11.40;99.90;;;;;;5060282;28;20051;-90
2022/01/02 01:05:26;;;;;;;2.55;1.30;;;11.40;99.90;;;;;;5063938;27;20051;-90
2022/01/02 01:07:58;;;;;;;2.00;1.30;;;11.40;99.90;;;;;;5092528;28;20046;-89
2022/01/02 01:10:27;;;;;;;4.40;2.08;;;11.40;99.90;;;;;;5069647;28;20043;-90
2022/01/02 01:12:54;;;;;;;14.40;2.50;;;11.40;99.90;;;;;;5064901;28;20039;-89
2022/01/02 01:15:22;;;;;;;2.20;1.00;;;11.40;99.90;;;;;;5093633;27;20035;-89
2022/01/02 01:17:49;;;;;;;1.75;1.25;;;11.40;99.90;;;;;;5079162;28;20122;-89
2022/01/02 01:20:15;;;;;;;7.07;1.95;;;11.40;99.90;;;;;;5080085;28;20027;-89
2022/01/02 01:22:42;;;;;;;2.75;1.65;;;11.40;99.90;;;;;;5079877;28;20489;-89
2022/01/02 01:25:15;;;;;;;7.35;1.85;;;11.30;99.90;;;;;;5079915;28;20742;-89
2022/01/02 01:27:42;;;;;;;3.40;1.83;;;11.30;99.90;;;;;;5079280;28;20032;-90
2022/01/02 01:30:09;;;;;;;2.22;1.33;;;11.30;99.90;;;;;;5079812;28;20083;-89
2022/01/02 01:32:35;;;;;;;1.25;0.60;;;11.40;99.90;;;;;;5079884;28;20527;-90
2022/01/02 01:35:02;;;;;;;2.03;0.77;;;11.30;99.90;;;;;;5079680;28;20047;-90
2022/01/02 01:37:28;;;;;;;1.33;0.88;;;11.30;99.90;;;;;;5095746;28;20404;-90
2022/01/02 01:39:53;;;;;;;3.72;1.33;;;11.30;99.90;;;;;;5079771;28;20032;-90
2022/01/02 01:42:29;;;;;;;5.78;2.58;;;11.30;99.90;;;;;;5096175;28;20115;-90
2022/01/02 01:47:29;;;;;;;3.72;1.70;;;11.30;99.90;;;;;;5095671;28;20497;-90
2022/01/02 01:49:54;;;;;;;6.05;2.35;;;11.30;99.90;;;;;;5079314;28;20047;-89
2022/01/02 01:52:20;;;;;;;5.32;1.42;;;11.30;99.90;;;;;;5079433;28;20047;-90
2022/01/02 01:54:45;;;;;;;2.90;1.55;;;11.50;99.90;;;;;;5079419;28;20128;-89
2022/01/02 01:57:11;;;;;;;2.13;1.30;;;11.40;99.90;;;;;;5084615;28;20047;-89
2022/01/02 01:59:36;;;;;;;5.07;2.10;;;11.40;99.90;;;;;;5059074;28;20632;-89
2022/01/02 02:02:02;;;;;;;5.32;1.95;;;11.40;99.90;;;;;;5076025;28;20097;-89
2022/01/02 02:04:28;;;;;;;5.07;1.77;;;11.40;99.90;;;;;;5059108;28;20043;-89
2022/01/02 02:06:56;;;;;;;1.90;1.05;;;11.40;99.90;;;;;;5058582;28;20394;-90
2022/01/02 02:09:24;;;;;;;1.73;1.15;;;11.40;99.90;;;;;;5059095;28;20040;-89
2022/01/02 02:11:50;;;;;;;3.42;1.30;;;11.40;99.90;;;;;;5058786;28;20036;-90
2022/01/02 02:14:16;;;;;;;7.82;2.65;;;11.40;99.90;;;;;;5075765;28;20050;-89
2022/01/02 02:16:42;;;;;;;3.47;2.00;;;11.50;99.90;;;;;;5058474;28;20482;-89
2022/01/02 02:19:07;;;;;;;4.25;2.22;;;11.50;99.90;;;;;;5075359;28;20044;-89
2022/01/02 02:21:36;;;;;;;5.72;1.90;;;11.50;99.90;;;;;;5058842;28;20083;-89
2022/01/02 02:24:04;;;;;;;6.13;2.35;;;11.50;99.90;;;;;;5058981;28;20075;-89
2022/01/02 02:26:34;;;;;;;1.90;0.52;;;11.50;99.90;;;;;;5058136;28;20734;-89
2022/01/02 02:29:02;;;;;;;10.13;1.63;;;11.50;99.90;;;;;;5058818;28;20405;-89
2022/01/02 02:31:27;;;;;;;3.13;1.60;;;11.50;99.90;;;;;;5065199;28;20059;-89
2022/01/02 02:33:53;;;;;;;2.75;1.13;;;11.50;99.90;;;;;;5064647;28;20069;-89
2022/01/02 02:36:18;;;;;;;1.55;0.80;;;11.50;99.90;;;;;;5059437;28;20396;-89
2022/01/02 02:38:44;;;;;;;3.00;1.77;;;11.50;99.90;;;;;;5058818;28;20040;-89
2022/01/02 02:41:10;;;;;;;1.98;1.02;;;11.50;99.90;;;;;;5058652;28;20047;-89
2022/01/02 02:49:11;;;;;;;1.67;0.93;;;11.40;99.90;;;;;;5075067;28;20136;-89
2022/01/02 02:54:21;;;;;;;4.47;1.88;;;11.40;99.90;;;;;;5092275;28;20048;-89
2022/01/02 02:56:56;;;;;;;2.08;1.48;;;11.40;99.90;;;;;;5077859;28;20044;-89
2022/01/02 02:59:26;;;;;;;3.25;1.40;;;11.40;99.90;;;;;;5096119;28;20044;-89
2022/01/02 03:01:53;;;;;;;1.48;1.00;;;11.40;99.90;;;;;;5082649;28;20047;-89
2022/01/02 03:04:20;;;;;;;3.58;1.90;;;11.30;99.90;;;;;;5099412;28;20039;-89
2022/01/02 03:06:45;;;;;;;5.13;1.70;;;11.30;99.90;;;;;;5081871;28;20044;-89
2022/01/02 03:09:11;;;;;;;7.75;1.73;;;11.30;99.90;;;;;;5082161;28;20546;-89
2022/01/02 03:11:41;;;;;;;3.55;1.65;;;11.30;99.90;;;;;;5082131;28;20040;-89
2022/01/02 03:14:09;;;;;;;2.38;0.90;;;11.30;99.90;;;;;;5081868;28;20560;-89
2022/01/02 03:16:35;;;;;;;5.38;2.72;;;11.30;99.90;;;;;;5081691;28;20042;-89
2022/01/02 03:19:01;;;;;;;3.40;1.52;;;11.30;99.90;;;;;;5081870;28;20039;-89
2022/01/02 03:21:26;;;;;;;1.88;0.90;;;11.20;99.90;;;;;;5081923;28;20476;-89
2022/01/02 03:23:52;;;;;;;3.72;1.80;;;11.30;99.90;;;;;;5098621;28;20131;-88
2022/01/02 03:26:18;;;;;;;3.00;1.90;;;11.30;99.90;;;;;;5080800;28;20078;-88
2022/01/02 03:28:44;;;;;;;5.68;2.13;;;11.30;99.90;;;;;;5081513;28;20535;-88
2022/01/02 03:31:10;;;;;;;0.70;0.38;;;11.30;99.90;;;;;;5081557;28;20074;-89
2022/01/02 03:33:37;;;;;;;3.30;1.25;;;11.30;99.90;;;;;;5081488;28;20039;-88
2022/01/02 03:36:03;;;;;;;5.00;1.42;;;11.30;99.90;;;;;;5081202;28;20027;-88
2022/01/02 03:38:29;;;;;;;1.70;1.00;;;11.30;99.90;;;;;;5081398;28;20408;-89
2022/01/02 03:40:54;;;;;;;8.68;1.80;;;11.40;99.90;;;;;;5081700;28;20035;-89
2022/01/02 03:43:20;;;;;;;2.22;0.98;;;11.30;99.90;;;;;;5081368;28;20073;-89
2022/01/02 03:45:45;;;;;;;3.45;1.55;;;11.40;99.90;;;;;;5081415;28;20066;-89
2022/01/02 03:48:11;;;;;;;3.50;2.03;;;11.30;99.90;;;;;;5080931;28;20427;-89
2022/01/02 03:50:37;;;;;;;6.95;1.92;;;11.30;99.90;;;;;;5081602;28;20036;-89
2022/01/02 03:53:03;;;;;;;9.77;1.38;;;11.40;99.90;;;;;;5081142;28;20171;-89
2022/01/02 03:55:29;;;;;;;8.98;2.15;;;11.40;99.90;;;;;;5081192;28;20118;-89
2022/01/02 03:57:54;;;;;;;3.58;1.50;;;11.40;99.90;;;;;;5080966;28;20557;-89
2022/01/02 04:00:20;;;;;;;2.38;1.27;;;11.40;99.90;;;;;;5081227;28;20088;-88
2022/01/02 04:02:46;;;;;;;3.67;1.38;;;11.40;99.90;;;;;;5081098;28;20036;-89
2022/01/02 04:05:13;;;;;;;6.00;1.38;;;11.40;99.90;;;;;;5080973;28;20040;-89
2022/01/02 04:07:40;;;;;;;1.70;0.98;;;11.40;99.90;;;;;;5063961;28;20032;-89
2022/01/02 04:10:08;;;;;;;3.15;1.65;;;11.40;99.90;;;;;;5060349;28;20079;-89
2022/01/02 04:12:34;;;;;;;3.13;0.98;;;11.40;99.90;;;;;;5061242;28;20047;-89
2022/01/02 04:15:03;;;;;;;3.95;1.80;;;11.40;99.90;;;;;;5061109;28;20062;-90
2022/01/02 04:17:28;;;;;;;3.85;2.03;;;11.40;99.90;;;;;;5060525;28;20036;-90
2022/01/02 04:19:54;;;;;;;2.40;0.90;;;11.50;99.90;;;;;;5061116;28;20051;-90
2022/01/02 04:22:20;;;;;;;1.48;0.80;;;11.50;99.90;;;;;;5060807;28;20040;-89
2022/01/02 04:24:45;;;;;;;1.30;0.93;;;11.50;99.90;;;;;;5078101;28;20535;-90
2022/01/02 04:27:11;;;;;;;3.55;1.40;;;11.50;99.90;;;;;;5080477;28;20043;-90
2022/01/02 04:29:37;;;;;;;4.15;1.70;;;11.50;99.90;;;;;;5097533;28;20040;-90
2022/01/02 04:32:03;;;;;;;3.92;1.45;;;11.50;99.90;;;;;;5072899;28;20511;-90
2022/01/02 04:34:29;;;;;;;1.38;1.05;;;11.50;99.90;;;;;;5074847;28;20043;-89
2022/01/02 04:36:54;;;;;;;2.65;1.33;;;11.60;99.90;;;;;;5080394;28;20134;-90
2022/01/02 04:39:20;;;;;;;4.13;0.88;;;11.60;99.90;;;;;;5080661;28;20031;-90
2022/01/02 04:41:46;;;;;;;2.78;1.15;;;11.60;99.90;;;;;;5097346;28;20127;-89
2022/01/02 04:44:11;;;;;;;9.85;1.67;;;11.60;99.90;;;;;;5069218;28;20039;-89
2022/01/02 04:46:37;;;;;;;2.08;0.75;;;11.60;99.90;;;;;;5060216;28;20071;-90
2022/01/02 04:49:03;;;;;;;6.28;1.42;;;11.70;99.90;;;;;;5060451;28;20032;-90
2022/01/02 04:51:28;;;;;;;1.75;0.88;;;11.60;99.90;;;;;;5060389;28;20117;-90
2022/01/02 04:53:54;;;;;;;3.83;1.55;;;11.80;99.90;;;;;;5060174;28;20042;-89
2022/01/02 04:56:19;;;;;;;0.82;0.32;;;11.70;99.90;;;;;;5059731;28;20044;-90
2022/01/02 04:58:45;;;;;;;4.40;2.47;;;11.70;99.90;;;;;;5060676;28;20036;-90
2022/01/02 05:01:14;;;;;;;2.08;0.98;;;11.80;99.90;;;;;;5060196;28;20036;-89
2022/01/02 05:03:41;;;;;;;5.10;2.08;;;11.90;99.90;;;;;;5060058;28;20036;-90
2022/01/02 05:06:07;;;;;;;5.85;1.00;;;11.90;99.90;;;;;;5059696;28;20090;-90
2022/01/02 05:08:33;;;;;;;4.43;1.83;;;11.90;99.90;;;;;;5059911;28;20124;-89
2022/01/02 05:10:58;;;;;;;2.40;0.95;;;12.00;99.90;;;;;;5076945;28;20074;-90
2022/01/02 05:13:24;;;;;;;3.75;1.30;;;12.00;99.90;;;;;;5067897;28;20035;-90
2022/01/02 05:15:49;;;;;;;5.95;2.20;;;12.00;99.90;;;;;;5079871;28;20532;-89
2022/01/02 05:18:15;;;;;;;29.13;1.38;;;12.10;99.90;;;;;;5079376;28;20036;-90
2022/01/02 05:20:44;;;;;;;13.52;3.42;;;12.10;99.90;;;;;;5079946;28;20118;-90
2022/01/02 05:23:19;;;;;;;5.80;1.80;;;12.10;99.90;;;;;;5089583;28;20462;-90
2022/01/02 05:25:45;;;;;;;;;;;12.10;99.90;;;;;;5060229;28;20032;-90
2022/01/02 05:28:10;;;;;;;0.32;0.30;;;12.10;99.90;;;;;;5059121;28;19923;-89
2022/01/02 05:30:37;;;;;;;2.95;0.95;;;12.20;99.90;;;;;;5059863;28;20040;-90
2022/01/02 05:33:03;;;;;;;1.10;0.50;;;12.20;99.90;;;;;;5059525;28;20035;-89
2022/01/02 05:35:30;;;;;;;7.68;1.70;;;12.20;99.90;;;;;;5059308;28;20036;-89
2022/01/02 05:37:55;;;;;;;3.97;1.27;;;12.20;99.90;;;;;;5058886;28;20036;-90
2022/01/02 05:40:21;;;;;;;4.97;1.33;;;12.20;99.90;;;;;;5059474;28;20038;-89
2022/01/02 05:42:46;;;;;;;5.32;1.30;;;12.20;99.90;;;;;;5061172;28;20043;-89
2022/01/02 05:45:12;;;;;;;4.00;0.75;;;12.30;99.90;;;;;;5079297;28;20539;-89
2022/01/02 05:47:38;;;;;;;5.95;1.77;;;12.30;99.90;;;;;;5095892;28;20051;-89
2022/01/02 05:50:06;;;;;;;5.78;1.45;;;12.30;99.90;;;;;;5078888;28;20036;-89
2022/01/02 05:52:31;;;;;;;11.48;3.42;;;12.40;99.90;;;;;;5078923;28;20081;-89
2022/01/02 05:54:57;;;;;;;11.50;2.55;;;12.40;99.90;;;;;;5096139;28;20581;-90
2022/01/02 05:57:23;;;;;;;2.75;1.10;;;12.40;99.90;;;;;;5079068;28;20084;-89
2022/01/02 05:59:49;;;;;;;9.68;2.45;;;12.40;99.90;;;;;;5079370;28;20035;-89
2022/01/02 06:02:14;;;;;;;5.10;0.80;;;12.30;99.90;;;;;;5078470;28;20135;-89
2022/01/02 06:04:40;;;;;;;3.47;1.30;;;12.40;99.90;;;;;;5078918;28;20123;-89
2022/01/02 06:07:05;;;;;;;7.03;1.60;;;12.40;99.90;;;;;;5078617;28;20386;-89
2022/01/02 06:09:31;;;;;;;6.90;1.20;;;12.40;99.90;;;;;;5078964;28;20642;-89
2022/01/02 06:11:56;;;;;;;9.73;3.30;;;12.40;99.90;;;;;;5078668;28;20039;-89
2022/01/02 06:14:22;;;;;;;4.00;1.58;;;12.40;99.90;;;;;;5078794;28;20035;-88
2022/01/02 06:16:48;;;;;;;0.98;0.63;;;12.40;99.90;;;;;;5078155;28;20035;-89
2022/01/02 06:19:13;;;;;;;6.18;1.50;;;12.40;99.90;;;;;;5078648;28;20040;-88
2022/01/02 06:21:39;;;;;;;3.13;1.27;;;12.40;99.90;;;;;;5078562;28;20039;-89
2022/01/02 06:24:04;;;;;;;2.85;1.00;;;12.40;99.90;;;;;;5078978;28;20050;-89
2022/01/02 06:26:30;;;;;;;4.60;1.25;;;12.50;99.90;;;;;;5078213;28;20512;-89
2022/01/02 06:28:55;;;;;;;5.80;1.60;;;12.50;99.90;;;;;;5078638;28;20093;-88
2022/01/02 06:31:21;;;;;;;2.50;1.05;;;12.50;99.90;;;;;;5095651;28;20031;-89
2022/01/02 06:33:47;;;;;;;4.55;1.80;;;12.50;99.90;;;;;;5070155;28;20405;-88
2022/01/02 06:36:12;;;;;;;4.88;1.77;;;12.50;99.90;;;;;;5062474;28;20040;-89
2022/01/02 06:38:38;;;;;;;11.65;1.58;;;12.50;99.90;;;;;;5062823;28;20126;-89
2022/01/02 06:41:04;;;;;;;2.75;1.27;;;12.50;99.90;;;;;;5079459;28;20405;-89
2022/01/02 06:43:32;;;;;;;2.60;1.20;;;12.40;99.90;;;;;;5070301;28;20043;-89
2022/01/02 06:45:57;;;;;;;3.35;1.83;;;12.40;99.90;;;;;;5082765;28;20039;-89
2022/01/02 06:48:23;;;;;;;5.07;1.27;;;12.40;99.90;;;;;;5082485;28;20039;-89
2022/01/02 06:50:48;;;;;;;2.30;1.40;;;12.30;99.90;;;;;;5082498;28;20044;-89
2022/01/02 06:53:14;;;;;;;4.22;1.27;;;12.30;99.90;;;;;;5082393;28;20485;-89
2022/01/02 06:55:39;;;;;;;0.52;0.22;;;12.30;99.90;;;;;;5082322;28;20043;-89
2022/01/02 06:58:08;;;;;;;1.83;0.98;;;12.30;99.90;;;;;;5081902;28;20476;-89
2022/01/02 07:00:34;;;;;;;0.95;0.60;;;12.20;99.90;;;;;;5081019;28;20043;-89
2022/01/02 07:02:59;;;;;;;2.25;1.35;;;12.20;99.90;;;;;;5062125;28;20040;-89
2022/01/02 07:05:25;;;;;;;5.50;1.20;;;12.20;99.90;;;;;;5078877;28;20032;-89
2022/01/02 07:07:52;;;;;;;8.10;1.65;;;12.20;99.90;;;;;;5061882;28;20432;-89
2022/01/02 07:10:18;;;;;;;6.00;1.50;;;12.20;99.90;;;;;;5062068;28;20075;-89
2022/01/02 07:12:43;;;;;;;2.13;0.93;;;12.10;99.90;;;;;;5061902;28;20075;-89
2022/01/02 07:15:10;;;;;;;3.65;1.00;;;12.10;99.90;;;;;;5078606;28;20495;-89
2022/01/02 07:17:36;;;;;;;5.13;1.13;;;12.00;99.90;;;;;;5061519;28;20028;-89
2022/01/02 07:20:04;;;;;;;2.90;1.25;;;12.00;99.90;;;;;;5061965;28;20433;-89
2022/01/02 07:22:30;;;;;;;3.65;0.98;;;12.00;99.90;;;;;;5061879;28;20036;-89
2022/01/02 07:24:56;;;;;;;7.93;0.80;;;12.00;99.90;;;;;;5061791;28;20047;-89
2022/01/02 07:27:21;;;;;;;1.60;0.55;;;12.00;99.90;;;;;;5061558;28;20487;-89
2022/01/02 07:29:48;;;;;;;3.97;1.13;;;12.00;99.90;;;;;;5061631;28;20036;-89
2022/01/02 07:32:15;;;;;;;4.85;1.63;;;12.00;99.90;;;;;;5061596;28;20039;-89
2022/01/02 07:34:41;;;;;;;6.15;1.90;;;12.00;99.90;;;;;;5061563;28;20032;-89
2022/01/02 07:37:07;;;;;;;2.83;1.58;;;12.00;99.90;;;;;;5061126;28;20028;-89
2022/01/02 07:39:33;;;;;;;7.78;1.63;;;12.00;99.90;;;;;;5061626;28;20036;-89
2022/01/02 07:41:59;;;;;;;2.33;1.52;;;12.00;99.90;;;;;;5061789;28;20048;-90
2022/01/02 07:44:24;;;;;;;3.40;1.13;;;12.00;99.90;;;;;;5061445;28;20039;-90
2022/01/02 07:46:50;;;;;;;7.60;2.25;;;12.00;99.90;;;;;;5060750;28;20040;-90
2022/01/02 07:49:15;;;;;;;1.83;1.08;;;12.00;99.90;;;;;;5061586;28;20071;-89
2022/01/02 07:51:41;;;;;;;1.88;0.85;;;12.00;99.90;;;;;;5061845;28;20071;-89
2022/01/02 07:54:06;;;;;;;6.00;2.17;;;12.00;99.90;;;;;;5061539;28;20032;-89
2022/01/02 07:56:32;;;;;;;4.00;1.70;;;12.00;99.90;;;;;;5061075;28;20481;-89
2022/01/02 07:58:58;;;;;;;3.08;1.15;;;11.90;99.90;;;;;;5061643;28;20446;-90
2022/01/02 08:01:24;;;;;;;4.93;1.63;;;11.90;99.90;;;;;;5061718;28;20043;-89
2022/01/02 08:03:51;;;;;;;3.10;1.73;;;11.80;99.90;;;;;;5061078;28;20032;-89
2022/01/02 08:06:16;;;;;;;2.83;1.48;;;11.80;99.90;;;;;;5060757;28;20076;-89
2022/01/02 08:08:42;;;;;;;2.85;1.20;;;11.70;99.90;;;;;;5061102;28;20125;-89
2022/01/02 08:11:08;;;;;;;8.85;3.47;;;11.80;99.90;;;;;;5061099;28;20400;-89
2022/01/02 08:13:33;;;;;;;6.47;1.75;;;11.80;99.90;;;;;;5060811;28;20480;-90
2022/01/02 08:15:59;;;;;;;2.67;1.30;;;11.80;99.90;;;;;;5061011;28;20102;-89
2022/01/02 08:18:25;;;;;;;7.28;1.92;;;11.80;99.90;;;;;;5060289;28;20098;-89
2022/01/02 08:20:50;;;;;;;4.93;1.58;;;11.80;99.90;;;;;;5060600;28;20051;-89
2022/01/02 08:23:16;;;;;;;3.90;1.60;;;11.80;99.90;;;;;;5060560;28;20480;-89
2022/01/02 08:25:41;;;;;;;2.92;1.73;;;11.80;99.90;;;;;;5060866;28;20382;-89
2022/01/02 08:28:07;;;;;;;5.88;1.73;;;11.80;99.90;;;;;;5060002;28;20035;-89
2022/01/02 08:30:33;;;;;;;3.78;1.63;;;11.70;99.90;;;;;;5060340;28;20039;-89
2022/01/02 08:32:59;;;;;;;3.20;1.20;;;11.70;99.90;;;;;;5061742;28;20036;-89
2022/01/02 08:35:25;;;;;;;4.32;1.35;;;11.60;99.90;;;;;;5097285;28;20138;-89
2022/01/02 08:37:51;;;;;;;4.15;1.30;;;11.60;99.90;;;;;;5080044;28;20126;-89
2022/01/02 08:40:16;;;;;;;2.13;0.90;;;11.60;99.90;;;;;;5070880;28;20123;-89
2022/01/02 08:42:42;;;;;;;1.85;1.02;;;11.50;99.90;;;;;;5060231;28;20044;-90
2022/01/02 08:45:07;;;;;;;4.05;1.88;;;11.50;99.90;;;;;;5077124;28;20438;-90
2022/01/02 08:47:33;;;;;;;8.23;2.53;;;11.60;99.90;;;;;;5076559;28;20051;-89
2022/01/02 08:49:59;;;;;;;11.30;2.22;;;11.60;99.90;;;;;;5060109;28;20044;-89
2022/01/02 08:52:25;;;;;;;4.55;0.98;;;11.60;99.90;;;;;;5060052;28;20032;-90
2022/01/02 08:54:50;;;;;;;4.07;2.22;;;11.60;99.90;;;;;;5060097;28;20094;-89
2022/01/02 08:57:16;;;;;;;5.13;1.35;;;11.60;99.90;;;;;;5076174;28;20080;-89
2022/01/02 08:59:42;;;;;;;4.70;1.92;;;11.60;99.90;;;;;;5066329;28;20404;-89
2022/01/02 09:02:12;;;;;;;5.35;1.58;;;11.70;99.90;;;;;;5095597;28;20039;-89
2022/01/02 09:04:37;;;;;;;2.92;1.25;;;11.80;99.90;;;;;;5061459;28;20121;-89
2022/01/02 09:07:03;;;;;;;1.50;1.10;;;11.90;99.90;;;;;;5077894;28;20073;-88
2022/01/02 09:09:29;;;;;;;2.40;1.25;;;12.00;99.90;;;;;;5067419;28;20044;-89
2022/01/02 09:11:54;;;;;;;3.90;1.95;;;12.10;99.90;;;;;;5058594;28;20073;-89
2022/01/02 09:14:20;;;;;;;7.20;1.75;;;12.10;99.90;;;;;;5069772;28;20514;-89
2022/01/02 09:16:46;;;;;;;2.92;1.45;;;12.10;99.90;;;;;;5078028;28;20035;-88
2022/01/02 09:19:17;;;;;;;3.78;1.08;;;12.20;99.90;;;;;;5072166;28;20036;-89
2022/01/02 09:21:49;;;;;;;6.07;1.60;;;12.20;99.90;;;;;;5082797;28;20035;-89
2022/01/02 09:24:14;;;;;;;6.55;2.53;;;12.20;99.90;;;;;;5057663;28;20632;-89
2022/01/02 09:26:40;;;;;;;4.45;1.73;;;12.20;99.90;;;;;;5065890;28;20057;-88
2022/01/02 09:29:06;;;;;;;4.63;1.20;;;12.20;99.90;;;;;;5065225;28;20035;-89
2022/01/02 09:31:31;;;;;;;2.33;1.20;;;12.20;99.90;;;;;;5057461;28;20040;-88
2022/01/02 09:33:57;;;;;;;2.92;1.33;;;12.20;99.90;;;;;;5057982;28;20063;-89
2022/01/02 09:36:22;;;;;;;3.80;1.63;;;12.20;99.90;;;;;;5092845;28;20081;-89
2022/01/02 09:38:48;;;;;;;4.63;1.92;;;12.10;99.90;;;;;;5094362;28;20040;-89
2022/01/02 09:41:14;;;;;;;2.67;1.45;;;12.10;99.90;;;;;;5070616;28;20059;-89
2022/01/02 09:43:39;;;;;;;4.82;1.40;;;12.20;99.90;;;;;;5067819;28;20040;-89
2022/01/02 09:46:06;;;;;;;5.57;2.13;;;12.40;99.90;;;;;;5057019;28;20036;-89
2022/01/02 09:48:31;;;;;;;2.88;1.60;;;12.10;99.90;;;;;;5060740;28;20039;-89
2022/01/02 09:50:57;;;;;;;2.03;1.15;;;12.20;99.90;;;;;;5066199;28;20050;-89
2022/01/02 09:53:23;;;;;;;2.78;1.38;;;12.10;99.90;;;;;;5060873;28;20028;-89
2022/01/02 09:55:49;;;;;;;3.47;1.92;;;12.20;99.90;;;;;;5066061;28;20549;-89
2022/01/02 09:58:15;;;;;;;2.88;1.52;;;12.10;99.90;;;;;;5088072;28;20050;-89
2022/01/02 10:00:47;;;;;;;2.78;1.45;;;12.20;99.90;;;;;;5061345;28;20032;-89
2022/01/02 10:03:13;;;;;;;5.57;2.15;;;12.10;99.90;;;;;;5058425;28;20039;-89
2022/01/02 10:06:01;;;;;;;12.15;2.50;;;12.20;99.90;;;;;;5058108;28;20911;-85
2022/01/02 10:08:34;;;;;;;4.90;2.13;;;12.20;99.90;;;;;;5056903;28;20039;-87
2022/01/02 10:11:21;;;;;;;8.60;1.73;;;12.20;99.90;;;;;;5057475;28;20039;-86
2022/01/02 10:13:55;;;;;;;4.72;1.67;;;12.20;99.90;;;;;;5057456;28;20047;-86
2022/01/02 10:16:29;;;;;;;1.13;0.90;;;12.20;99.90;;;;;;5065086;28;20100;-87
2022/01/02 10:19:19;;;;;;;2.38;1.05;;;12.20;99.90;;;;;;5057249;28;20036;-87
2022/01/02 10:21:56;;;;;;;2.05;1.05;;;12.30;99.90;;;;;;5074730;28;20036;-89
2022/01/02 10:24:28;;;;;;;6.10;2.30;;;12.30;99.90;;;;;;5057347;28;20096;-90
2022/01/02 10:27:18;;;;;;;1.38;0.73;;;12.30;99.90;;;;;;5057109;28;20067;-87
2022/01/02 10:29:46;;;;;;;5.47;1.95;;;12.30;99.90;;;;;;5059599;28;20069;-87
2022/01/02 10:32:35;;;;;;;5.13;2.15;;;12.30;99.90;;;;;;5065263;28;20055;-86
2022/01/02 10:35:16;;;;;;;3.67;1.75;;;12.30;99.90;;;;;;5073177;28;20557;-87
2022/01/02 10:37:43;;;;;;;11.43;1.73;;;12.30;99.90;;;;;;5086653;28;20037;-87
2022/01/02 10:40:36;;;;;;;2.83;0.88;;;12.30;99.90;;;;;;5068616;28;20032;-87
2022/01/02 10:43:22;;;;;;;5.60;1.95;;;12.30;99.90;;;;;;5056819;28;20477;-87
2022/01/02 10:45:50;;;;;;;2.17;1.23;;;12.30;99.90;;;;;;5073710;28;20040;-87
2022/01/02 10:48:28;;;;;;;5.43;2.35;;;12.30;99.90;;;;;;5073268;28;20131;-87
2022/01/02 10:51:17;;;;;;;1.38;0.98;;;12.30;99.90;;;;;;5057348;28;20083;-87
2022/01/02 10:53:56;;;;;;;3.20;1.40;;;12.30;99.90;;;;;;5056758;28;20024;-87
2022/01/02 10:56:24;;;;;;;5.70;1.77;;;12.30;99.90;;;;;;5073105;28;20036;-87
2022/01/02 10:58:50;;;;;;;4.07;1.95;;;12.30;99.90;;;;;;5056844;28;20044;-87
2022/01/02 11:01:16;;;;;;;7.53;2.13;;;12.30;99.90;;;;;;5062341;28;20038;-86
2022/01/02 11:04:00;;;;;;;6.00;2.38;;;12.20;99.90;;;;;;5062032;28;20043;-87
2022/01/02 11:06:33;;;;;;;9.02;1.40;;;12.20;99.90;;;;;;5059352;28;20036;-87
2022/01/02 11:08:59;;;;;;;5.68;2.70;;;12.20;99.90;;;;;;5076946;28;20526;-87
2022/01/02 11:11:26;;;;;;;2.70;1.50;;;12.20;99.90;;;;;;5068125;28;20040;-87
2022/01/02 11:13:52;;;;;;;4.78;2.40;;;12.20;99.90;;;;;;5062330;28;20027;-87
2022/01/02 11:16:19;;;;;;;12.30;3.47;;;12.20;99.90;;;;;;5056204;28;20044;-87
2022/01/02 11:18:46;;;;;;;2.53;1.13;;;12.20;99.90;;;;;;5066269;28;20035;-87
2022/01/02 11:21:33;;;;;;;6.35;2.60;;;12.20;99.90;;;;;;5086162;28;20089;-87
2022/01/02 11:24:09;;;;;;;3.80;1.73;;;12.20;99.90;;;;;;5080411;28;20039;-87
2022/01/02 11:26:46;;;;;;;3.95;2.33;;;12.20;99.90;;;;;;5064806;28;20051;-86
2022/01/02 11:29:25;;;;;;;5.15;2.40;;;12.20;99.90;;;;;;5059849;28;20044;-87
2022/01/02 11:32:26;;;;;;;3.20;1.77;;;12.20;99.90;;;;;;5061373;28;20032;-87
2022/01/02 11:34:53;;;;;;;9.30;3.33;;;12.20;99.90;;;;;;5023011;28;20078;-87
2022/01/02 11:37:25;;;;;;;2.85;1.67;;;12.20;99.90;;;;;;5086669;28;20046;-88
2022/01/02 11:39:57;;;;;;;2.72;1.42;;;12.20;99.90;;;;;;5068984;28;20040;-86
2022/01/02 11:42:42;;;;;;;3.38;2.10;;;12.20;99.90;;;;;;5059652;28;20043;-87
2022/01/02 11:45:23;;;;;;;1.65;1.13;;;12.20;99.90;;;;;;5059766;28;20455;-87
2022/01/02 11:47:49;;;;;;;4.13;2.10;;;12.20;99.90;;;;;;5062025;28;20048;-87
2022/01/02 11:50:27;;;;;;;6.95;1.85;;;12.20;99.90;;;;;;5073439;28;20866;-87
2022/01/02 11:53:18;;;;;;;0.73;0.55;;;12.20;99.90;;;;;;5063751;28;20036;-87
2022/01/02 11:55:45;;;;;;;4.30;1.73;;;12.20;99.90;;;;;;5076392;28;20131;-87
2022/01/02 11:58:11;;;;;;;6.57;1.40;;;12.20;99.90;;;;;;5059211;28;20032;-87
2022/01/02 12:00:40;;;;;;;3.80;1.38;;;12.20;99.90;;;;;;5059513;28;20059;-87
2022/01/02 12:03:06;;;;;;;5.45;1.95;;;12.20;99.90;;;;;;5068657;28;20456;-87
2022/01/02 12:05:32;;;;;;;2.00;0.82;;;12.20;99.90;;;;;;5079605;28;20039;-87
2022/01/02 12:07:58;;;;;;;5.85;1.80;;;12.20;99.90;;;;;;5078938;28;20050;-87
2022/01/02 12:10:31;;;;;;;2.40;1.00;;;12.20;99.90;;;;;;5079412;28;20400;-87
2022/01/02 12:12:59;;;;;;;4.97;1.48;;;12.20;99.90;;;;;;5066217;28;20137;-87
2022/01/02 12:15:45;;;;;;;6.22;1.20;;;12.20;99.90;;;;;;5067377;28;20074;-86
2022/01/02 12:18:28;;;;;;;;;;;12.20;99.90;;;;;;5076087;28;20504;-87
2022/01/02 12:20:54;;;;;;;11.05;1.90;;;12.20;99.90;;;;;;5059135;28;19938;-87
2022/01/02 12:23:35;;;;;;;6.95;1.23;;;12.20;99.90;;;;;;5058889;28;20032;-87
2022/01/02 12:26:25;;;;;;;13.85;2.72;;;12.20;99.90;;;;;;5075681;28;20402;-87
2022/01/02 12:29:07;;;;;;;5.72;2.47;;;12.30;99.90;;;;;;5075462;28;20553;-87
2022/01/02 12:31:38;;;;;;;7.22;2.25;;;12.30;99.90;;;;;;5058710;28;20040;-87
2022/01/02 12:34:09;;;;;;;7.65;1.67;;;12.40;99.90;;;;;;5058988;28;20045;-87
2022/01/02 12:36:44;;;;;;;6.30;1.50;;;12.40;99.90;;;;;;5080084;28;20035;-87
2022/01/02 12:39:11;;;;;;;12.85;1.98;;;12.40;99.90;;;;;;5068654;28;20036;-87
2022/01/02 12:41:39;;;;;;;4.47;1.20;;;12.30;99.90;;;;;;5075837;28;20424;-87
2022/01/02 12:44:08;;;;;;;6.07;1.27;;;12.40;99.90;;;;;;5073352;28;20047;-87
2022/01/02 12:46:47;;;;;;;7.13;2.30;;;12.40;99.90;;;;;;5079992;27;20052;-87
2022/01/02 12:49:34;;;;;;;12.50;1.25;;;12.40;99.90;;;;;;5066814;28;20131;-87
2022/01/02 12:52:06;;;;;;;7.50;3.05;;;12.30;99.90;;;;;;5067871;28;20496;-88
2022/01/02 12:54:37;;;;;;;6.22;1.65;;;12.30;99.90;;;;;;5097238;27;20118;-88
2022/01/02 12:57:09;;;;;;;21.80;2.58;;;12.20;99.90;;;;;;5115866;27;20063;-87
2022/01/02 12:59:37;;;;;;;3.33;1.27;;;12.20;99.90;;;;;;5073155;28;20101;-87
2022/01/02 13:02:05;;;;;;;7.80;1.90;;;12.10;99.90;;;;;;5070651;28;20064;-87
2022/01/02 13:04:46;;;;;;;12.75;1.25;;;12.00;99.90;;;;;;5075397;28;20067;-88
2022/01/02 13:07:35;;;;;;;5.40;1.10;;;12.00;99.90;;;;;;5063630;28;20078;-88